createdAt,value
2023-04-10T00:02:08.893Z,100.00
2023-04-10T00:04:35.876Z,100.00
2023-04-10T00:07:02.523Z,100.00
2023-04-10T00:09:29.836Z,100.00
2023-04-10T00:11:56.866Z,100.00
2023-04-10T00:14:24.603Z,100.00
2023-04-10T00:16:51.344Z,100.00
2023-04-10T00:19:17.996Z,100.00
2023-04-10T00:21:44.537Z,100.00
2023-04-10T00:24:11.222Z,100.00
2023-04-10T00:26:37.873Z,100.00
2023-04-10T00:29:04.480Z,100.00
2023-04-10T00:31:31.790Z,100.00
2023-04-10T00:33:58.379Z,100.00
2023-04-10T00:36:24.995Z,100.00
2023-04-10T00:38:51.598Z,100.00
2023-04-10T00:41:18.240Z,100.00
2023-04-10T07:55:49.668Z,100.00
2023-04-10T07:58:16.590Z,100.00
2023-04-10T08:00:43.380Z,100.00
2023-04-10T08:03:12.501Z,100.00
2023-04-10T08:05:39.434Z,100.00
2023-04-10T08:08:06.277Z,100.00
2023-04-10T08:10:32.904Z,100.00
2023-04-10T08:12:59.581Z,100.00
2023-04-10T08:15:26.445Z,100.00
2023-04-10T08:17:54.039Z,100.00
2023-04-10T08:20:20.996Z,100.00
2023-04-10T08:22:47.625Z,100.00
2023-04-10T08:25:14.299Z,100.00
2023-04-10T08:27:41.081Z,100.00
2023-04-10T08:30:08.342Z,100.00
2023-04-10T08:32:36.133Z,100.00
2023-04-10T08:35:02.730Z,100.00
2023-04-10T08:37:29.331Z,100.00
2023-04-10T08:39:56.006Z,100.00
2023-04-10T08:42:22.724Z,100.00
2023-04-10T08:44:49.907Z,100.00
2023-04-10T08:47:21.447Z,100.00
2023-04-10T08:49:54.856Z,100.00
2023-04-10T08:52:23.131Z,100.00
2023-04-10T08:54:54.277Z,100.00
2023-04-10T08:57:21.448Z,100.00
2023-04-10T08:59:51.860Z,100.00
2023-04-10T09:02:19.332Z,100.00
2023-04-10T09:04:51.755Z,100.00
2023-04-10T09:07:19.022Z,100.00
2023-04-10T09:09:45.716Z,100.00
2023-04-10T09:12:14.222Z,100.00
2023-04-10T09:14:41.798Z,100.00
2023-04-10T09:17:16.484Z,100.00
2023-04-10T09:19:45.253Z,100.00
2023-04-10T09:22:12.690Z,100.00
2023-04-10T09:24:41.786Z,100.00
2023-04-10T09:27:09.109Z,100.00
2023-04-10T09:29:44.373Z,99.81
2023-04-10T09:32:12.830Z,99.27
2023-04-10T09:34:53.980Z,97.56
2023-04-10T09:37:22.759Z,97.19
2023-04-10T09:39:49.333Z,95.37
2023-04-10T09:42:16.313Z,92.25
2023-04-10T09:44:43.137Z,90.27
2023-04-10T09:47:22.297Z,92.46
2023-04-10T09:49:50.138Z,89.82
2023-04-10T09:52:21.800Z,86.83
2023-04-10T09:54:48.453Z,87.44
2023-04-10T09:57:19.376Z,84.41
2023-04-10T09:59:51.878Z,84.25
2023-04-10T10:02:20.661Z,83.63
2023-04-10T10:04:49.225Z,81.89
2023-04-10T10:07:17.937Z,80.85
2023-04-10T10:09:46.122Z,75.35
2023-04-10T10:12:15.801Z,73.96
2023-04-10T10:14:55.610Z,69.32
2023-04-10T10:17:28.957Z,70.18
2023-04-10T10:20:05.884Z,70.26
2023-04-10T10:22:32.549Z,69.46
2023-04-10T10:25:00.858Z,67.57
2023-04-10T10:27:32.105Z,66.19
2023-04-10T10:30:03.060Z,70.43
2023-04-10T10:32:34.380Z,68.50
2023-04-10T10:35:02.523Z,68.95
2023-04-10T10:37:32.444Z,68.13
2023-04-10T10:40:27.302Z,61.56
2023-04-10T10:43:00.932Z,59.73
2023-04-10T10:45:36.567Z,59.03
2023-04-10T10:48:03.363Z,52.69
2023-04-10T10:50:54.101Z,49.00
2023-04-10T10:53:32.878Z,46.47
2023-04-10T10:55:59.722Z,45.45
2023-04-10T10:58:47.035Z,46.90
2023-04-10T11:01:14.034Z,44.16
2023-04-10T11:03:40.783Z,38.32
2023-04-10T11:06:09.333Z,33.82
2023-04-10T11:08:43.471Z,30.47
2023-04-10T11:11:22.072Z,30.59
2023-04-10T11:13:57.307Z,30.88
2023-04-10T11:16:44.821Z,30.50
2023-04-10T11:19:20.034Z,32.44
2023-04-10T11:22:15.850Z,29.33
2023-04-10T11:24:58.869Z,26.92
2023-04-10T11:27:49.745Z,27.18
2023-04-10T11:30:28.992Z,26.50
2023-04-10T11:32:56.263Z,25.10
2023-04-10T11:35:23.130Z,24.95
2023-04-10T11:37:49.783Z,24.35
2023-04-10T11:40:16.973Z,26.64
2023-04-10T11:42:43.784Z,27.94
2023-04-10T11:45:27.405Z,28.69
2023-04-10T11:47:55.114Z,29.12
2023-04-10T11:50:22.308Z,30.88
2023-04-10T11:52:52.286Z,29.47
2023-04-10T11:55:19.962Z,30.10
2023-04-10T11:57:46.498Z,29.55
2023-04-10T12:00:23.898Z,29.70
2023-04-10T12:02:53.714Z,28.39
2023-04-10T12:05:20.983Z,27.51
2023-04-10T12:07:49.428Z,27.53
2023-04-10T12:10:16.097Z,27.88
2023-04-10T12:12:42.803Z,26.80
2023-04-10T12:15:29.105Z,26.54
2023-04-10T12:17:56.936Z,26.45
2023-04-10T12:20:26.729Z,27.02
2023-04-10T12:22:56.914Z,26.33
2023-04-10T12:25:23.500Z,27.61
2023-04-10T12:27:52.075Z,27.56
2023-04-10T12:30:18.725Z,28.21
2023-04-10T12:32:53.046Z,29.56
2023-04-10T12:35:20.020Z,30.53
2023-04-10T12:37:51.302Z,29.98
2023-04-10T12:40:20.828Z,29.88
2023-04-10T12:42:47.699Z,29.93
2023-04-10T12:45:14.837Z,29.21
2023-04-10T12:47:54.746Z,28.63
2023-04-10T12:50:21.635Z,28.79
2023-04-10T12:53:08.042Z,29.17
2023-04-10T12:55:34.858Z,28.49
2023-04-10T12:58:22.733Z,27.93
2023-04-10T13:00:49.584Z,27.28
2023-04-10T13:03:16.544Z,27.76
2023-04-10T13:05:43.569Z,26.75
2023-04-10T13:08:10.229Z,26.76
2023-04-10T13:10:38.413Z,27.27
2023-04-10T13:13:07.152Z,28.41
2023-04-10T13:15:37.594Z,27.56
2023-04-10T13:18:06.146Z,28.55
2023-04-10T13:20:34.568Z,28.80
2023-04-10T13:23:02.996Z,28.35
2023-04-10T13:25:40.025Z,28.53
2023-04-10T13:28:11.629Z,27.85
2023-04-10T13:30:40.334Z,28.42
2023-04-10T13:33:08.426Z,29.59
2023-04-10T13:35:35.200Z,29.45
2023-04-10T13:38:01.953Z,30.75
2023-04-10T13:40:28.666Z,30.62
2023-04-10T13:42:55.567Z,30.40
2023-04-10T13:45:22.479Z,30.93
2023-04-10T13:47:49.074Z,31.39
2023-04-10T13:50:15.852Z,31.17
2023-04-10T13:52:42.467Z,31.94
2023-04-10T13:55:09.557Z,32.29
2023-04-10T13:57:36.197Z,32.54
2023-04-10T14:00:04.428Z,33.85
2023-04-10T14:02:31.231Z,33.67
2023-04-10T14:04:58.044Z,34.92
2023-04-10T14:07:24.636Z,35.21
2023-04-10T14:09:51.596Z,35.95
2023-04-10T14:12:19.508Z,36.09
2023-04-10T14:14:46.343Z,35.40
2023-04-10T14:17:12.983Z,36.13
2023-04-10T14:19:40.225Z,35.02
2023-04-10T14:22:09.901Z,35.04
2023-04-10T14:24:36.715Z,35.67
2023-04-10T14:27:03.375Z,36.24
2023-04-10T14:31:59.786Z,36.72
2023-04-10T14:34:26.594Z,36.62
2023-04-10T14:36:56.319Z,36.20
2023-04-10T14:39:25.946Z,36.35
2023-04-10T14:41:52.967Z,35.27
2023-04-10T14:44:19.757Z,36.21
2023-04-10T14:46:46.400Z,37.26
2023-04-10T14:49:15.096Z,38.22
2023-04-10T14:51:45.601Z,38.41
2023-04-10T14:54:12.356Z,35.25
2023-04-10T14:56:38.967Z,33.30
2023-04-10T14:59:07.155Z,33.34
2023-04-10T15:01:34.328Z,33.82
2023-04-10T15:04:01.267Z,33.79
2023-04-10T15:06:28.400Z,33.75
2023-04-10T15:08:56.314Z,33.72
2023-04-10T15:11:23.037Z,35.17
2023-04-10T15:13:49.777Z,36.44
2023-04-10T15:16:16.720Z,36.17
2023-04-10T15:18:43.437Z,35.79
2023-04-10T15:21:10.094Z,36.27
2023-04-10T15:23:36.746Z,36.08
2023-04-10T15:26:03.636Z,39.06
2023-04-10T15:28:30.388Z,40.00
2023-04-10T15:30:57.859Z,39.27
2023-04-10T15:33:24.593Z,40.46
2023-04-10T15:35:51.339Z,40.50
2023-04-10T15:38:17.995Z,42.58
2023-04-10T15:40:44.610Z,42.25
2023-04-10T15:43:11.365Z,42.15
2023-04-10T15:45:38.009Z,40.58
2023-04-10T15:48:05.060Z,39.52
2023-04-10T15:50:31.744Z,39.45
2023-04-10T15:52:58.428Z,39.84
2023-04-10T15:55:24.991Z,38.67
2023-04-10T15:57:51.623Z,38.05
2023-04-10T16:00:18.571Z,36.63
2023-04-10T16:02:45.587Z,37.70
2023-04-10T16:05:12.379Z,39.13
2023-04-10T16:07:40.775Z,40.81
2023-04-10T16:10:09.356Z,41.01
2023-04-10T16:12:36.139Z,42.38
2023-04-10T16:15:04.591Z,42.83
2023-04-10T16:17:31.496Z,45.18
2023-04-10T16:19:58.228Z,45.91
2023-04-10T16:22:24.879Z,46.95
2023-04-10T16:24:55.842Z,48.97
2023-04-10T16:27:22.840Z,49.42
2023-04-10T16:29:49.739Z,49.37
2023-04-10T16:32:18.252Z,51.54
2023-04-10T16:34:46.427Z,54.28
2023-04-10T16:37:13.690Z,53.93
2023-04-10T16:39:40.222Z,53.78
2023-04-10T16:42:06.861Z,57.04
2023-04-10T16:44:33.526Z,59.03
2023-04-10T16:47:00.256Z,62.09
2023-04-10T16:49:27.094Z,61.69
2023-04-10T16:51:53.772Z,62.55
2023-04-10T16:54:20.724Z,63.23
2023-04-10T16:56:47.345Z,64.18
2023-04-10T16:59:13.992Z,64.26
2023-04-10T17:01:40.630Z,64.27
2023-04-10T17:04:08.290Z,63.44
2023-04-10T17:06:38.198Z,64.03
2023-04-10T17:09:05.031Z,62.83
2023-04-10T17:11:31.666Z,64.99
2023-04-10T17:13:58.253Z,66.00
2023-04-10T17:16:24.846Z,66.11
2023-04-10T17:18:51.441Z,67.32
2023-04-10T17:21:18.265Z,68.44
2023-04-10T17:23:44.815Z,67.84
2023-04-10T17:26:16.224Z,69.22
2023-04-10T17:28:46.580Z,69.21
2023-04-10T17:31:14.083Z,70.71
2023-04-10T17:33:43.824Z,71.82
2023-04-10T17:36:12.639Z,73.06
2023-04-10T17:38:40.534Z,74.21
2023-04-10T17:41:08.208Z,73.89
2023-04-10T17:43:35.351Z,74.67
2023-04-10T17:46:02.452Z,76.44
2023-04-10T17:48:29.285Z,77.53
2023-04-10T17:50:55.938Z,78.53
2023-04-10T17:53:22.504Z,79.11
2023-04-10T17:55:49.062Z,78.99
2023-04-10T17:58:15.995Z,80.31
2023-04-10T18:00:43.166Z,80.17
2023-04-10T18:03:10.206Z,80.69
2023-04-10T18:05:37.612Z,80.99
2023-04-10T18:08:04.511Z,81.76
2023-04-10T18:10:31.240Z,82.26
2023-04-10T18:12:58.813Z,82.99
2023-04-10T18:15:26.212Z,82.99
2023-04-10T18:17:53.039Z,83.47
2023-04-10T18:20:21.179Z,83.49
2023-04-10T18:22:48.399Z,83.72
2023-04-10T18:25:16.078Z,84.26
2023-04-10T18:27:51.438Z,84.66
2023-04-10T18:30:22.207Z,84.92
2023-04-10T18:32:52.228Z,84.98
2023-04-10T18:35:19.137Z,85.21
2023-04-10T18:37:45.708Z,85.02
2023-04-10T18:40:17.089Z,85.26
2023-04-10T18:42:43.807Z,86.00
2023-04-10T18:45:13.108Z,86.35
2023-04-10T18:47:39.753Z,85.91
2023-04-10T18:50:07.012Z,86.00
2023-04-10T18:52:33.582Z,86.17
2023-04-10T18:55:00.141Z,86.13
2023-04-10T18:57:26.703Z,86.81
2023-04-10T18:59:53.426Z,86.48
2023-04-10T19:02:20.694Z,87.84
2023-04-10T19:04:47.573Z,87.99
2023-04-10T19:07:14.529Z,87.62
2023-04-10T19:09:41.166Z,87.97
2023-04-10T19:12:07.735Z,88.09
2023-04-10T19:14:37.023Z,88.56
2023-04-10T19:17:06.243Z,88.78
2023-04-10T19:19:33.885Z,88.31
2023-04-10T19:22:01.168Z,87.77
2023-04-10T19:24:27.986Z,88.52
2023-04-10T19:26:56.302Z,88.02
2023-04-10T19:29:23.224Z,88.08
2023-04-10T19:31:49.920Z,87.45
2023-04-10T19:34:16.568Z,87.74
2023-04-10T19:36:43.162Z,88.26
2023-04-10T19:39:09.741Z,88.99
2023-04-10T19:41:37.391Z,89.72
2023-04-10T19:44:03.966Z,89.54
2023-04-10T19:46:30.572Z,89.87
2023-04-10T19:48:57.166Z,89.16
2023-04-10T19:51:23.701Z,90.04
2023-04-10T19:53:50.324Z,89.67
2023-04-10T19:56:17.192Z,89.73
2023-04-10T19:58:46.930Z,89.33
2023-04-10T20:01:14.064Z,89.85
2023-04-10T20:03:41.020Z,88.64
2023-04-10T20:06:08.202Z,88.69
2023-04-10T20:08:36.142Z,89.68
2023-04-10T20:11:07.021Z,89.95
2023-04-10T20:13:34.855Z,89.29
2023-04-10T20:16:01.863Z,89.27
2023-04-10T20:18:28.593Z,89.22
2023-04-10T20:20:55.278Z,89.38
2023-04-10T20:23:21.898Z,89.51
2023-04-10T20:25:48.491Z,89.34
2023-04-10T20:28:17.086Z,89.93
2023-04-10T20:30:44.275Z,89.86
2023-04-10T20:33:11.164Z,89.89
2023-04-10T20:35:37.836Z,89.57
2023-04-10T20:38:04.528Z,89.42
2023-04-10T20:40:31.112Z,89.53
2023-04-10T20:42:57.700Z,89.91
2023-04-10T20:45:24.274Z,89.44
2023-04-10T20:47:51.300Z,89.82
2023-04-10T20:50:18.594Z,89.33
2023-04-10T20:52:45.210Z,89.63
2023-04-10T20:55:11.912Z,89.23
2023-04-10T20:57:38.513Z,89.30
2023-04-10T21:00:05.808Z,89.67
2023-04-10T21:02:32.544Z,89.46
2023-04-10T21:04:59.828Z,89.44
2023-04-10T21:07:26.429Z,89.71
2023-04-10T21:09:53.010Z,89.69
2023-04-10T21:12:19.596Z,89.80
2023-04-10T21:14:46.285Z,89.02
2023-04-10T21:17:12.977Z,89.96
2023-04-10T21:19:39.518Z,90.15
2023-04-10T21:22:06.243Z,90.36
2023-04-10T21:24:32.854Z,90.37
2023-04-10T21:26:59.440Z,90.24
2023-04-10T21:29:26.297Z,90.43
2023-04-10T21:31:52.850Z,90.22
2023-04-10T21:34:19.489Z,91.11
2023-04-10T21:36:46.141Z,90.87
2023-04-10T21:39:12.805Z,92.00
2023-04-10T21:41:39.713Z,95.06
2023-04-10T21:44:06.684Z,100.00
2023-04-10T21:46:33.370Z,100.00
2023-04-10T21:49:00.013Z,100.00
2023-04-10T21:51:27.895Z,100.00
2023-04-10T21:53:54.663Z,100.00
2023-04-10T21:56:21.400Z,100.00
2023-04-10T21:58:47.995Z,100.00
2023-04-10T22:01:14.568Z,100.00
2023-04-10T22:03:41.262Z,100.00
2023-04-10T22:06:09.090Z,100.00
2023-04-10T22:08:38.504Z,100.00
2023-04-10T22:11:06.108Z,100.00
2023-04-10T22:13:33.015Z,100.00
2023-04-10T22:16:02.241Z,100.00
2023-04-10T22:18:29.370Z,100.00
2023-04-10T22:20:56.131Z,100.00
2023-04-10T22:23:23.009Z,100.00
2023-04-10T22:25:49.947Z,100.00
2023-04-10T22:28:16.490Z,100.00
2023-04-10T22:30:43.102Z,100.00
2023-04-10T22:33:10.612Z,100.00
2023-04-10T22:35:37.293Z,100.00
2023-04-10T22:38:04.000Z,100.00
2023-04-10T22:40:30.876Z,100.00
2023-04-10T22:42:57.450Z,100.00
2023-04-10T22:45:24.123Z,100.00
2023-04-10T22:47:50.665Z,100.00
2023-04-10T22:50:21.179Z,100.00
2023-04-10T22:52:47.862Z,100.00
2023-04-10T22:55:14.522Z,100.00
2023-04-10T22:57:41.116Z,100.00
2023-04-10T23:00:08.346Z,100.00
2023-04-10T23:02:35.127Z,100.00
2023-04-10T23:05:02.945Z,100.00
2023-04-10T23:07:29.751Z,100.00
2023-04-10T23:09:56.342Z,100.00
2023-04-10T23:12:22.995Z,100.00
2023-04-10T23:14:49.545Z,100.00
2023-04-10T23:17:16.082Z,100.00
2023-04-10T23:19:42.701Z,100.00
2023-04-10T23:22:09.287Z,100.00
2023-04-10T23:24:35.877Z,100.00
2023-04-10T23:27:03.595Z,100.00
2023-04-10T23:29:30.215Z,100.00
2023-04-10T23:31:56.840Z,100.00
2023-04-10T23:34:23.518Z,100.00
2023-04-10T23:36:50.154Z,100.00
2023-04-10T23:39:16.735Z,100.00
2023-04-10T23:41:43.292Z,100.00
2023-04-10T23:44:09.847Z,100.00
2023-04-10T23:46:36.456Z,100.00
2023-04-10T23:49:03.172Z,100.00
2023-04-10T23:51:32.025Z,100.00
2023-04-10T23:53:59.014Z,100.00
2023-04-10T23:56:29.468Z,100.00
2023-04-10T23:58:56.714Z,100.00
